sensor_id;sensor_type;location;lat;lon;timestamp;P1;durP1;ratioP1;P2;durP2;ratioP2
13171;SDS011;6651;53.200;10.432;2023-02-13T00:02:23;18.17;;;14.80;;
13171;SDS011;6651;53.200;10.432;2023-02-13T00:04:49;18.10;;;15.43;;
13171;SDS011;6651;53.200;10.432;2023-02-13T00:07:15;17.27;;;15.23;;
13171;SDS011;6651;53.200;10.432;2023-02-13T00:09:41;20.95;;;17.02;;
13171;SDS011;6651;53.200;10.432;2023-02-13T00:12:07;19.02;;;16.63;;
13171;SDS011;6651;53.200;10.432;2023-02-13T00:14:34;20.17;;;17.17;;
13171;SDS011;6651;53.200;10.432;2023-02-13T00:17:01;18.17;;;15.70;;
13171;SDS011;6651;53.200;10.432;2023-02-13T00:19:27;19.60;;;16.40;;
13171;SDS011;6651;53.200;10.432;2023-02-13T00:21:53;20.67;;;16.70;;
13171;SDS011;6651;53.200;10.432;2023-02-13T00:24:19;21.40;;;18.05;;
13171;SDS011;6651;53.200;10.432;2023-02-13T00:26:45;19.98;;;16.38;;
13171;SDS011;6651;53.200;10.432;2023-02-13T00:29:11;21.08;;;17.10;;
13171;SDS011;6651;53.200;10.432;2023-02-13T00:31:37;21.73;;;17.40;;
13171;SDS011;6651;53.200;10.432;2023-02-13T00:34:03;21.58;;;16.88;;
13171;SDS011;6651;53.200;10.432;2023-02-13T00:36:29;21.02;;;17.05;;
13171;SDS011;6651;53.200;10.432;2023-02-13T00:38:55;22.20;;;18.48;;
13171;SDS011;6651;53.200;10.432;2023-02-13T00:41:21;20.38;;;16.88;;
13171;SDS011;6651;53.200;10.432;2023-02-13T00:43:47;21.98;;;18.02;;
13171;SDS011;6651;53.200;10.432;2023-02-13T00:46:14;23.05;;;18.45;;
13171;SDS011;6651;53.200;10.432;2023-02-13T00:48:40;25.65;;;19.60;;
13171;SDS011;6651;53.200;10.432;2023-02-13T00:51:06;23.15;;;18.05;;
13171;SDS011;6651;53.200;10.432;2023-02-13T00:53:33;22.42;;;17.38;;
13171;SDS011;6651;53.200;10.432;2023-02-13T00:55:59;25.00;;;18.60;;
13171;SDS011;6651;53.200;10.432;2023-02-13T00:58:25;23.85;;;17.45;;
13171;SDS011;6651;53.200;10.432;2023-02-13T01:00:52;23.10;;;17.92;;
13171;SDS011;6651;53.200;10.432;2023-02-13T01:03:18;21.88;;;17.48;;
13171;SDS011;6651;53.200;10.432;2023-02-13T01:05:44;25.42;;;18.55;;
13171;SDS011;6651;53.200;10.432;2023-02-13T01:08:11;22.60;;;17.90;;
13171;SDS011;6651;53.200;10.432;2023-02-13T01:10:38;22.90;;;18.15;;
13171;SDS011;6651;53.200;10.432;2023-02-13T01:13:04;26.52;;;19.15;;
13171;SDS011;6651;53.200;10.432;2023-02-13T01:15:31;24.77;;;18.58;;
13171;SDS011;6651;53.200;10.432;2023-02-13T01:17:57;24.48;;;18.08;;
13171;SDS011;6651;53.200;10.432;2023-02-13T01:20:25;21.80;;;16.92;;
13171;SDS011;6651;53.200;10.432;2023-02-13T01:22:51;23.98;;;19.08;;
13171;SDS011;6651;53.200;10.432;2023-02-13T01:25:17;21.27;;;17.30;;
13171;SDS011;6651;53.200;10.432;2023-02-13T01:27:43;23.42;;;17.95;;
13171;SDS011;6651;53.200;10.432;2023-02-13T01:30:10;22.20;;;17.13;;
13171;SDS011;6651;53.200;10.432;2023-02-13T01:32:41;22.80;;;16.73;;
13171;SDS011;6651;53.200;10.432;2023-02-13T01:35:07;23.15;;;16.38;;
13171;SDS011;6651;53.200;10.432;2023-02-13T01:37:33;21.48;;;15.93;;
13171;SDS011;6651;53.200;10.432;2023-02-13T01:39:59;22.42;;;16.27;;
13171;SDS011;6651;53.200;10.432;2023-02-13T01:42:26;18.42;;;14.85;;
13171;SDS011;6651;53.200;10.432;2023-02-13T01:44:57;20.88;;;16.10;;
13171;SDS011;6651;53.200;10.432;2023-02-13T01:47:28;22.23;;;16.75;;
13171;SDS011;6651;53.200;10.432;2023-02-13T01:50:07;23.75;;;16.70;;
13171;SDS011;6651;53.200;10.432;2023-02-13T01:52:34;20.98;;;16.10;;
13171;SDS011;6651;53.200;10.432;2023-02-13T01:55:02;21.42;;;16.58;;
13171;SDS011;6651;53.200;10.432;2023-02-13T01:57:28;20.20;;;15.27;;
13171;SDS011;6651;53.200;10.432;2023-02-13T02:00:05;19.95;;;15.00;;
13171;SDS011;6651;53.200;10.432;2023-02-13T02:02:33;19.05;;;13.93;;
13171;SDS011;6651;53.200;10.432;2023-02-13T02:05:02;18.88;;;14.52;;
13171;SDS011;6651;53.200;10.432;2023-02-13T02:07:28;17.83;;;13.60;;
13171;SDS011;6651;53.200;10.432;2023-02-13T02:09:57;19.25;;;14.23;;
13171;SDS011;6651;53.200;10.432;2023-02-13T02:12:25;21.02;;;15.00;;
13171;SDS011;6651;53.200;10.432;2023-02-13T02:14:54;17.85;;;14.02;;
13171;SDS011;6651;53.200;10.432;2023-02-13T02:17:21;19.50;;;14.48;;
13171;SDS011;6651;53.200;10.432;2023-02-13T02:27:37;20.08;;;14.00;;
13171;SDS011;6651;53.200;10.432;2023-02-13T02:32:37;19.50;;;14.35;;
13171;SDS011;6651;53.200;10.432;2023-02-13T02:37:38;17.30;;;13.10;;
13171;SDS011;6651;53.200;10.432;2023-02-13T02:43:07;17.13;;;12.20;;
13171;SDS011;6651;53.200;10.432;2023-02-13T02:45:42;16.38;;;12.38;;
13171;SDS011;6651;53.200;10.432;2023-02-13T02:48:14;17.10;;;13.05;;
13171;SDS011;6651;53.200;10.432;2023-02-13T02:51:02;18.65;;;12.73;;
13171;SDS011;6651;53.200;10.432;2023-02-13T02:53:40;17.58;;;12.70;;
13171;SDS011;6651;53.200;10.432;2023-02-13T02:56:40;17.45;;;12.77;;
13171;SDS011;6651;53.200;10.432;2023-02-13T02:59:01;16.55;;;12.90;;
13171;SDS011;6651;53.200;10.432;2023-02-13T03:01:47;15.25;;;11.82;;
13171;SDS011;6651;53.200;10.432;2023-02-13T03:04:35;17.60;;;12.40;;
13171;SDS011;6651;53.200;10.432;2023-02-13T03:07:20;14.60;;;11.23;;
13171;SDS011;6651;53.200;10.432;2023-02-13T03:09:47;15.57;;;11.85;;
13171;SDS011;6651;53.200;10.432;2023-02-13T03:12:35;14.93;;;11.20;;
13171;SDS011;6651;53.200;10.432;2023-02-13T03:15:21;14.07;;;10.25;;
13171;SDS011;6651;53.200;10.432;2023-02-13T03:17:48;13.95;;;10.80;;
13171;SDS011;6651;53.200;10.432;2023-02-13T03:20:48;14.65;;;10.52;;
13171;SDS011;6651;53.200;10.432;2023-02-13T03:24:37;15.15;;;10.88;;
13171;SDS011;6651;53.200;10.432;2023-02-13T03:29:07;15.13;;;10.80;;
13171;SDS011;6651;53.200;10.432;2023-02-13T03:32:42;13.18;;;10.18;;
13171;SDS011;6651;53.200;10.432;2023-02-13T03:34:45;13.85;;;10.70;;
13171;SDS011;6651;53.200;10.432;2023-02-13T03:37:33;13.40;;;10.25;;
13171;SDS011;6651;53.200;10.432;2023-02-13T03:42:47;12.73;;;10.20;;
13171;SDS011;6651;53.200;10.432;2023-02-13T03:45:23;12.93;;;9.85;;
13171;SDS011;6651;53.200;10.432;2023-02-13T03:48:10;14.90;;;10.07;;
13171;SDS011;6651;53.200;10.432;2023-02-13T03:50:57;14.10;;;9.77;;
13171;SDS011;6651;53.200;10.432;2023-02-13T03:53:27;13.00;;;9.50;;
13171;SDS011;6651;53.200;10.432;2023-02-13T03:55:54;11.07;;;9.02;;
13171;SDS011;6651;53.200;10.432;2023-02-13T03:58:42;12.05;;;9.57;;
13171;SDS011;6651;53.200;10.432;2023-02-13T04:01:29;13.23;;;9.40;;
13171;SDS011;6651;53.200;10.432;2023-02-13T04:04:10;11.57;;;9.45;;
13171;SDS011;6651;53.200;10.432;2023-02-13T04:06:41;10.90;;;8.60;;
13171;SDS011;6651;53.200;10.432;2023-02-13T04:09:08;11.68;;;8.98;;
13171;SDS011;6651;53.200;10.432;2023-02-13T04:14:12;10.88;;;8.40;;
13171;SDS011;6651;53.200;10.432;2023-02-13T04:16:41;11.05;;;8.55;;
13171;SDS011;6651;53.200;10.432;2023-02-13T04:19:08;10.63;;;8.30;;
13171;SDS011;6651;53.200;10.432;2023-02-13T04:21:36;10.75;;;8.30;;
13171;SDS011;6651;53.200;10.432;2023-02-13T04:24:02;12.27;;;8.98;;
13171;SDS011;6651;53.200;10.432;2023-02-13T04:26:33;9.82;;;7.88;;
13171;SDS011;6651;53.200;10.432;2023-02-13T04:29:00;11.90;;;9.10;;
13171;SDS011;6651;53.200;10.432;2023-02-13T04:31:26;10.05;;;8.63;;
13171;SDS011;6651;53.200;10.432;2023-02-13T04:33:52;10.50;;;8.43;;
13171;SDS011;6651;53.200;10.432;2023-02-13T04:36:18;12.02;;;8.68;;
13171;SDS011;6651;53.200;10.432;2023-02-13T04:38:44;9.98;;;7.28;;
13171;SDS011;6651;53.200;10.432;2023-02-13T04:41:10;11.10;;;8.45;;
13171;SDS011;6651;53.200;10.432;2023-02-13T04:43:36;12.80;;;8.52;;
13171;SDS011;6651;53.200;10.432;2023-02-13T04:46:02;11.50;;;7.75;;
13171;SDS011;6651;53.200;10.432;2023-02-13T04:48:28;10.07;;;8.02;;
13171;SDS011;6651;53.200;10.432;2023-02-13T04:50:54;9.90;;;7.00;;
13171;SDS011;6651;53.200;10.432;2023-02-13T04:53:20;10.98;;;8.35;;
13171;SDS011;6651;53.200;10.432;2023-02-13T04:55:46;9.65;;;7.40;;
13171;SDS011;6651;53.200;10.432;2023-02-13T04:58:12;9.48;;;7.70;;
13171;SDS011;6651;53.200;10.432;2023-02-13T05:00:38;10.15;;;8.25;;
13171;SDS011;6651;53.200;10.432;2023-02-13T05:03:08;10.52;;;8.55;;
13171;SDS011;6651;53.200;10.432;2023-02-13T05:05:35;11.80;;;9.02;;
13171;SDS011;6651;53.200;10.432;2023-02-13T05:08:02;14.68;;;11.07;;
13171;SDS011;6651;53.200;10.432;2023-02-13T05:10:28;13.50;;;10.43;;
13171;SDS011;6651;53.200;10.432;2023-02-13T05:12:54;14.50;;;10.93;;
13171;SDS011;6651;53.200;10.432;2023-02-13T05:15:20;12.13;;;9.68;;
13171;SDS011;6651;53.200;10.432;2023-02-13T05:17:47;14.20;;;10.40;;
13171;SDS011;6651;53.200;10.432;2023-02-13T05:20:14;14.80;;;10.95;;
13171;SDS011;6651;53.200;10.432;2023-02-13T05:22:44;12.93;;;10.20;;
13171;SDS011;6651;53.200;10.432;2023-02-13T05:25:29;16.30;;;10.60;;
13171;SDS011;6651;53.200;10.432;2023-02-13T05:27:55;12.13;;;9.63;;
13171;SDS011;6651;53.200;10.432;2023-02-13T05:30:21;13.95;;;11.40;;
13171;SDS011;6651;53.200;10.432;2023-02-13T05:32:47;13.05;;;10.35;;
13171;SDS011;6651;53.200;10.432;2023-02-13T05:35:15;14.75;;;11.00;;
13171;SDS011;6651;53.200;10.432;2023-02-13T05:37:41;13.90;;;10.93;;
13171;SDS011;6651;53.200;10.432;2023-02-13T05:40:08;13.10;;;9.98;;
13171;SDS011;6651;53.200;10.432;2023-02-13T05:42:34;14.25;;;10.70;;
13171;SDS011;6651;53.200;10.432;2023-02-13T05:45:00;12.27;;;9.85;;
13171;SDS011;6651;53.200;10.432;2023-02-13T05:47:26;12.73;;;10.45;;
13171;SDS011;6651;53.200;10.432;2023-02-13T05:49:52;12.30;;;9.90;;
13171;SDS011;6651;53.200;10.432;2023-02-13T05:52:18;13.98;;;10.45;;
13171;SDS011;6651;53.200;10.432;2023-02-13T05:54:44;15.23;;;11.02;;
13171;SDS011;6651;53.200;10.432;2023-02-13T05:57:10;12.73;;;10.43;;
13171;SDS011;6651;53.200;10.432;2023-02-13T05:59:36;14.40;;;10.48;;
13171;SDS011;6651;53.200;10.432;2023-02-13T06:02:02;13.82;;;10.40;;
13171;SDS011;6651;53.200;10.432;2023-02-13T06:04:28;13.75;;;10.23;;
13171;SDS011;6651;53.200;10.432;2023-02-13T06:06:54;11.27;;;9.20;;
13171;SDS011;6651;53.200;10.432;2023-02-13T06:09:20;13.75;;;10.43;;
13171;SDS011;6651;53.200;10.432;2023-02-13T06:11:46;12.73;;;9.77;;
13171;SDS011;6651;53.200;10.432;2023-02-13T06:14:12;12.18;;;9.45;;
13171;SDS011;6651;53.200;10.432;2023-02-13T06:16:38;11.27;;;9.35;;
13171;SDS011;6651;53.200;10.432;2023-02-13T06:19:05;13.98;;;9.45;;
13171;SDS011;6651;53.200;10.432;2023-02-13T06:21:31;11.48;;;8.73;;
13171;SDS011;6651;53.200;10.432;2023-02-13T06:24:05;10.35;;;8.40;;
13171;SDS011;6651;53.200;10.432;2023-02-13T06:26:31;12.07;;;8.70;;
13171;SDS011;6651;53.200;10.432;2023-02-13T06:28:57;13.32;;;9.90;;
13171;SDS011;6651;53.200;10.432;2023-02-13T06:31:23;10.90;;;8.45;;
13171;SDS011;6651;53.200;10.432;2023-02-13T06:33:49;11.63;;;8.90;;
13171;SDS011;6651;53.200;10.432;2023-02-13T06:36:15;12.07;;;8.98;;
13171;SDS011;6651;53.200;10.432;2023-02-13T06:38:41;13.88;;;10.05;;
13171;SDS011;6651;53.200;10.432;2023-02-13T06:41:07;11.60;;;8.95;;
13171;SDS011;6651;53.200;10.432;2023-02-13T06:43:34;11.88;;;8.80;;
13171;SDS011;6651;53.200;10.432;2023-02-13T06:46:03;12.15;;;9.23;;
13171;SDS011;6651;53.200;10.432;2023-02-13T06:48:29;15.70;;;10.57;;
13171;SDS011;6651;53.200;10.432;2023-02-13T06:50:55;12.57;;;9.57;;
13171;SDS011;6651;53.200;10.432;2023-02-13T06:53:21;13.30;;;10.18;;
13171;SDS011;6651;53.200;10.432;2023-02-13T06:55:52;14.30;;;10.40;;
13171;SDS011;6651;53.200;10.432;2023-02-13T06:58:19;13.23;;;10.10;;
13171;SDS011;6651;53.200;10.432;2023-02-13T07:00:45;11.68;;;9.68;;
13171;SDS011;6651;53.200;10.432;2023-02-13T07:03:11;12.50;;;9.57;;
13171;SDS011;6651;53.200;10.432;2023-02-13T07:05:38;10.98;;;8.70;;
13171;SDS011;6651;53.200;10.432;2023-02-13T07:08:05;11.90;;;9.05;;
13171;SDS011;6651;53.200;10.432;2023-02-13T07:10:31;11.80;;;8.93;;
13171;SDS011;6651;53.200;10.432;2023-02-13T07:12:57;12.70;;;9.27;;
13171;SDS011;6651;53.200;10.432;2023-02-13T07:15:23;11.70;;;9.35;;
13171;SDS011;6651;53.200;10.432;2023-02-13T07:17:56;13.30;;;9.25;;
13171;SDS011;6651;53.200;10.432;2023-02-13T07:20:22;14.93;;;10.60;;
13171;SDS011;6651;53.200;10.432;2023-02-13T07:22:48;11.88;;;9.45;;
13171;SDS011;6651;53.200;10.432;2023-02-13T07:25:14;15.05;;;11.45;;
13171;SDS011;6651;53.200;10.432;2023-02-13T07:27:40;16.98;;;12.15;;
13171;SDS011;6651;53.200;10.432;2023-02-13T07:30:06;12.88;;;10.38;;
13171;SDS011;6651;53.200;10.432;2023-02-13T07:32:32;12.45;;;10.50;;
13171;SDS011;6651;53.200;10.432;2023-02-13T07:34:58;12.90;;;10.25;;
13171;SDS011;6651;53.200;10.432;2023-02-13T07:37:26;15.27;;;10.57;;
13171;SDS011;6651;53.200;10.432;2023-02-13T07:39:52;14.52;;;11.02;;
13171;SDS011;6651;53.200;10.432;2023-02-13T07:42:18;12.95;;;10.05;;
13171;SDS011;6651;53.200;10.432;2023-02-13T07:44:44;14.07;;;10.48;;
13171;SDS011;6651;53.200;10.432;2023-02-13T07:47:10;15.50;;;10.77;;
13171;SDS011;6651;53.200;10.432;2023-02-13T07:49:36;12.98;;;10.60;;
13171;SDS011;6651;53.200;10.432;2023-02-13T07:52:03;15.07;;;11.50;;
13171;SDS011;6651;53.200;10.432;2023-02-13T07:54:29;17.80;;;12.13;;
13171;SDS011;6651;53.200;10.432;2023-02-13T07:56:56;14.07;;;10.35;;
13171;SDS011;6651;53.200;10.432;2023-02-13T07:59:22;13.57;;;10.38;;
13171;SDS011;6651;53.200;10.432;2023-02-13T08:01:48;13.80;;;10.15;;
13171;SDS011;6651;53.200;10.432;2023-02-13T08:04:14;16.40;;;11.43;;
13171;SDS011;6651;53.200;10.432;2023-02-13T08:06:40;15.60;;;10.90;;
13171;SDS011;6651;53.200;10.432;2023-02-13T08:09:06;16.48;;;11.30;;
13171;SDS011;6651;53.200;10.432;2023-02-13T08:11:52;18.00;;;13.00;;
13171;SDS011;6651;53.200;10.432;2023-02-13T08:14:19;17.08;;;12.02;;
13171;SDS011;6651;53.200;10.432;2023-02-13T08:16:45;15.50;;;12.25;;
13171;SDS011;6651;53.200;10.432;2023-02-13T08:19:11;16.33;;;12.57;;
13171;SDS011;6651;53.200;10.432;2023-02-13T08:21:37;16.40;;;13.18;;
13171;SDS011;6651;53.200;10.432;2023-02-13T08:24:04;16.05;;;12.38;;
13171;SDS011;6651;53.200;10.432;2023-02-13T08:26:31;16.02;;;12.65;;
13171;SDS011;6651;53.200;10.432;2023-02-13T08:28:57;16.88;;;13.10;;
13171;SDS011;6651;53.200;10.432;2023-02-13T08:31:23;16.17;;;12.02;;
13171;SDS011;6651;53.200;10.432;2023-02-13T08:33:49;16.23;;;11.40;;
13171;SDS011;6651;53.200;10.432;2023-02-13T08:36:15;17.33;;;13.00;;
13171;SDS011;6651;53.200;10.432;2023-02-13T08:38:43;16.42;;;12.50;;
13171;SDS011;6651;53.200;10.432;2023-02-13T08:41:09;17.75;;;13.55;;
13171;SDS011;6651;53.200;10.432;2023-02-13T08:43:35;14.75;;;12.02;;
13171;SDS011;6651;53.200;10.432;2023-02-13T08:46:03;18.05;;;14.35;;
13171;SDS011;6651;53.200;10.432;2023-02-13T08:48:29;16.33;;;13.20;;
13171;SDS011;6651;53.200;10.432;2023-02-13T08:50:55;18.50;;;14.73;;
13171;SDS011;6651;53.200;10.432;2023-02-13T08:53:21;17.92;;;14.25;;
13171;SDS011;6651;53.200;10.432;2023-02-13T08:55:54;17.55;;;13.90;;
13171;SDS011;6651;53.200;10.432;2023-02-13T08:58:20;20.02;;;14.70;;
13171;SDS011;6651;53.200;10.432;2023-02-13T09:00:47;17.27;;;14.48;;
13171;SDS011;6651;53.200;10.432;2023-02-13T09:03:13;17.25;;;14.35;;
13171;SDS011;6651;53.200;10.432;2023-02-13T09:05:39;19.63;;;14.57;;
13171;SDS011;6651;53.200;10.432;2023-02-13T09:08:05;19.15;;;14.30;;
13171;SDS011;6651;53.200;10.432;2023-02-13T09:10:32;16.52;;;12.98;;
13171;SDS011;6651;53.200;10.432;2023-02-13T09:12:58;17.50;;;12.95;;
13171;SDS011;6651;53.200;10.432;2023-02-13T09:15:25;16.73;;;13.95;;
13171;SDS011;6651;53.200;10.432;2023-02-13T09:17:51;16.48;;;13.13;;
13171;SDS011;6651;53.200;10.432;2023-02-13T09:20:17;15.88;;;12.95;;
13171;SDS011;6651;53.200;10.432;2023-02-13T09:22:43;15.95;;;12.20;;
13171;SDS011;6651;53.200;10.432;2023-02-13T09:25:09;15.63;;;12.52;;
13171;SDS011;6651;53.200;10.432;2023-02-13T09:27:35;19.02;;;12.82;;
13171;SDS011;6651;53.200;10.432;2023-02-13T09:30:03;16.88;;;13.25;;
13171;SDS011;6651;53.200;10.432;2023-02-13T09:32:29;15.55;;;11.52;;
13171;SDS011;6651;53.200;10.432;2023-02-13T09:34:55;15.13;;;12.35;;
13171;SDS011;6651;53.200;10.432;2023-02-13T09:37:21;17.10;;;12.80;;
13171;SDS011;6651;53.200;10.432;2023-02-13T09:39:48;15.88;;;12.60;;
13171;SDS011;6651;53.200;10.432;2023-02-13T09:42:16;15.32;;;12.15;;
13171;SDS011;6651;53.200;10.432;2023-02-13T09:44:43;15.88;;;11.93;;
13171;SDS011;6651;53.200;10.432;2023-02-13T09:47:29;15.60;;;12.00;;
13171;SDS011;6651;53.200;10.432;2023-02-13T09:50:03;15.60;;;12.65;;
13171;SDS011;6651;53.200;10.432;2023-02-13T09:52:32;15.25;;;11.75;;
13171;SDS011;6651;53.200;10.432;2023-02-13T09:54:59;15.15;;;11.90;;
13171;SDS011;6651;53.200;10.432;2023-02-13T09:57:33;14.73;;;11.75;;
13171;SDS011;6651;53.200;10.432;2023-02-13T10:00:07;16.00;;;12.80;;
13171;SDS011;6651;53.200;10.432;2023-02-13T10:21:20;15.85;;;12.73;;
13171;SDS011;6651;53.200;10.432;2023-02-13T10:23:50;16.17;;;13.00;;
13171;SDS011;6651;53.200;10.432;2023-02-13T10:26:20;18.35;;;12.88;;
13171;SDS011;6651;53.200;10.432;2023-02-13T10:28:57;15.30;;;12.73;;
13171;SDS011;6651;53.200;10.432;2023-02-13T10:31:45;17.02;;;13.70;;
13171;SDS011;6651;53.200;10.432;2023-02-13T10:34:16;22.35;;;16.88;;
13171;SDS011;6651;53.200;10.432;2023-02-13T10:36:43;17.33;;;13.68;;
13171;SDS011;6651;53.200;10.432;2023-02-13T10:57:21;16.88;;;11.85;;
13171;SDS011;6651;53.200;10.432;2023-02-13T11:00:02;15.00;;;12.05;;
13171;SDS011;6651;53.200;10.432;2023-02-13T11:02:30;15.50;;;11.63;;
13171;SDS011;6651;53.200;10.432;2023-02-13T11:05:01;12.70;;;10.88;;
13171;SDS011;6651;53.200;10.432;2023-02-13T11:07:32;13.75;;;11.73;;
13171;SDS011;6651;53.200;10.432;2023-02-13T11:10:02;12.80;;;10.23;;
13171;SDS011;6651;53.200;10.432;2023-02-13T11:12:31;11.88;;;10.48;;
13171;SDS011;6651;53.200;10.432;2023-02-13T11:14:58;12.90;;;9.95;;
13171;SDS011;6651;53.200;10.432;2023-02-13T11:17:25;13.00;;;9.77;;
13171;SDS011;6651;53.200;10.432;2023-02-13T11:19:53;12.30;;;10.18;;
13171;SDS011;6651;53.200;10.432;2023-02-13T11:22:30;12.88;;;10.15;;
13171;SDS011;6651;53.200;10.432;2023-02-13T11:25:11;13.23;;;10.43;;
13171;SDS011;6651;53.200;10.432;2023-02-13T11:27:42;15.13;;;10.00;;
13171;SDS011;6651;53.200;10.432;2023-02-13T11:32:40;11.27;;;9.40;;
13171;SDS011;6651;53.200;10.432;2023-02-13T11:35:24;11.57;;;8.40;;
13171;SDS011;6651;53.200;10.432;2023-02-13T11:37:59;11.88;;;9.55;;
13171;SDS011;6651;53.200;10.432;2023-02-13T11:40:35;12.02;;;9.68;;
13171;SDS011;6651;53.200;10.432;2023-02-13T11:43:03;11.85;;;9.57;;
13171;SDS011;6651;53.200;10.432;2023-02-13T11:45:31;12.65;;;10.02;;
13171;SDS011;6651;53.200;10.432;2023-02-13T11:47:57;12.27;;;10.48;;
13171;SDS011;6651;53.200;10.432;2023-02-13T11:50:25;12.70;;;10.02;;
13171;SDS011;6651;53.200;10.432;2023-02-13T11:52:56;13.40;;;10.40;;
13171;SDS011;6651;53.200;10.432;2023-02-13T11:55:23;11.68;;;9.68;;
13171;SDS011;6651;53.200;10.432;2023-02-13T11:57:57;13.13;;;9.98;;
13171;SDS011;6651;53.200;10.432;2023-02-13T12:00:34;10.85;;;8.73;;
13171;SDS011;6651;53.200;10.432;2023-02-13T12:03:26;12.38;;;10.15;;
13171;SDS011;6651;53.200;10.432;2023-02-13T12:06:01;11.15;;;9.48;;
13171;SDS011;6651;53.200;10.432;2023-02-13T12:08:28;11.98;;;10.18;;
13171;SDS011;6651;53.200;10.432;2023-02-13T12:10:55;12.23;;;10.43;;
13171;SDS011;6651;53.200;10.432;2023-02-13T12:15:53;13.82;;;11.40;;
13171;SDS011;6651;53.200;10.432;2023-02-13T12:18:23;14.48;;;10.75;;
13171;SDS011;6651;53.200;10.432;2023-02-13T12:21:29;11.90;;;10.35;;
13171;SDS011;6651;53.200;10.432;2023-02-13T12:26:50;13.10;;;11.40;;
13171;SDS011;6651;53.200;10.432;2023-02-13T12:37:18;12.25;;;10.43;;
13171;SDS011;6651;53.200;10.432;2023-02-13T12:50:27;12.90;;;10.75;;
13171;SDS011;6651;53.200;10.432;2023-02-13T12:53:05;12.73;;;10.68;;
13171;SDS011;6651;53.200;10.432;2023-02-13T13:09:34;13.88;;;10.90;;
13171;SDS011;6651;53.200;10.432;2023-02-13T13:17:53;15.43;;;11.68;;
13171;SDS011;6651;53.200;10.432;2023-02-13T13:20:32;13.05;;;11.23;;
13171;SDS011;6651;53.200;10.432;2023-02-13T13:23:10;15.77;;;12.68;;
13171;SDS011;6651;53.200;10.432;2023-02-13T13:28:15;14.13;;;12.23;;
13171;SDS011;6651;53.200;10.432;2023-02-13T13:30:42;15.50;;;12.55;;
13171;SDS011;6651;53.200;10.432;2023-02-13T13:33:16;13.95;;;10.73;;
13171;SDS011;6651;53.200;10.432;2023-02-13T13:35:44;15.00;;;11.40;;
13171;SDS011;6651;53.200;10.432;2023-02-13T13:41:10;14.30;;;11.88;;
13171;SDS011;6651;53.200;10.432;2023-02-13T13:48:41;13.63;;;11.00;;
13171;SDS011;6651;53.200;10.432;2023-02-13T13:51:11;13.77;;;11.35;;
13171;SDS011;6651;53.200;10.432;2023-02-13T13:54:16;12.80;;;10.45;;
13171;SDS011;6651;53.200;10.432;2023-02-13T13:56:25;13.50;;;11.00;;
13171;SDS011;6651;53.200;10.432;2023-02-13T13:58:52;14.32;;;12.15;;
13171;SDS011;6651;53.200;10.432;2023-02-13T14:06:17;14.45;;;10.88;;
13171;SDS011;6651;53.200;10.432;2023-02-13T14:17:11;14.93;;;12.45;;
13171;SDS011;6651;53.200;10.432;2023-02-13T14:19:39;14.20;;;12.10;;
13171;SDS011;6651;53.200;10.432;2023-02-13T14:27:33;15.43;;;12.52;;
13171;SDS011;6651;53.200;10.432;2023-02-13T14:30:01;14.93;;;12.32;;
13171;SDS011;6651;53.200;10.432;2023-02-13T14:32:30;14.18;;;12.00;;
13171;SDS011;6651;53.200;10.432;2023-02-13T14:34:58;13.75;;;12.05;;
13171;SDS011;6651;53.200;10.432;2023-02-13T14:37:32;14.23;;;12.18;;
13171;SDS011;6651;53.200;10.432;2023-02-13T14:40:11;15.20;;;12.70;;
13171;SDS011;6651;53.200;10.432;2023-02-13T14:42:39;16.02;;;12.68;;
13171;SDS011;6651;53.200;10.432;2023-02-13T14:45:50;15.63;;;12.95;;
13171;SDS011;6651;53.200;10.432;2023-02-13T14:47:56;15.75;;;13.15;;
13171;SDS011;6651;53.200;10.432;2023-02-13T14:50:23;15.50;;;13.23;;
13171;SDS011;6651;53.200;10.432;2023-02-13T14:52:51;15.60;;;13.25;;
13171;SDS011;6651;53.200;10.432;2023-02-13T14:57:48;17.33;;;13.32;;
13171;SDS011;6651;53.200;10.432;2023-02-13T15:00:23;14.82;;;12.15;;
13171;SDS011;6651;53.200;10.432;2023-02-13T15:02:52;15.73;;;13.45;;
13171;SDS011;6651;53.200;10.432;2023-02-13T15:05:18;17.38;;;14.07;;
13171;SDS011;6651;53.200;10.432;2023-02-13T15:07:49;15.20;;;13.38;;
13171;SDS011;6651;53.200;10.432;2023-02-13T15:12:57;16.83;;;14.35;;
13171;SDS011;6651;53.200;10.432;2023-02-13T15:15:24;17.35;;;14.00;;
13171;SDS011;6651;53.200;10.432;2023-02-13T15:17:51;20.92;;;18.73;;
13171;SDS011;6651;53.200;10.432;2023-02-13T15:20:22;20.40;;;17.08;;
13171;SDS011;6651;53.200;10.432;2023-02-13T15:22:49;30.65;;;27.20;;
13171;SDS011;6651;53.200;10.432;2023-02-13T15:27:50;21.20;;;16.88;;
13171;SDS011;6651;53.200;10.432;2023-02-13T15:30:19;18.15;;;14.57;;
13171;SDS011;6651;53.200;10.432;2023-02-13T15:32:52;16.20;;;14.18;;
13171;SDS011;6651;53.200;10.432;2023-02-13T15:37:50;16.42;;;13.10;;
13171;SDS011;6651;53.200;10.432;2023-02-13T15:40:21;15.63;;;13.43;;
13171;SDS011;6651;53.200;10.432;2023-02-13T15:42:48;18.13;;;13.07;;
13171;SDS011;6651;53.200;10.432;2023-02-13T15:45:15;15.40;;;12.43;;
13171;SDS011;6651;53.200;10.432;2023-02-13T15:47:43;13.95;;;11.48;;
13171;SDS011;6651;53.200;10.432;2023-02-13T15:50:15;15.05;;;12.43;;
13171;SDS011;6651;53.200;10.432;2023-02-13T15:52:42;13.50;;;11.10;;
13171;SDS011;6651;53.200;10.432;2023-02-13T15:55:21;14.40;;;11.32;;
13171;SDS011;6651;53.200;10.432;2023-02-13T15:57:48;15.77;;;11.52;;
13171;SDS011;6651;53.200;10.432;2023-02-13T16:00:20;16.77;;;13.10;;
13171;SDS011;6651;53.200;10.432;2023-02-13T16:02:48;15.70;;;13.38;;
13171;SDS011;6651;53.200;10.432;2023-02-13T16:05:15;16.45;;;13.45;;
13171;SDS011;6651;53.200;10.432;2023-02-13T16:07:52;15.52;;;12.93;;
13171;SDS011;6651;53.200;10.432;2023-02-13T16:10:31;16.23;;;13.25;;
13171;SDS011;6651;53.200;10.432;2023-02-13T16:12:58;15.35;;;12.90;;
13171;SDS011;6651;53.200;10.432;2023-02-13T16:15:27;14.88;;;13.18;;
13171;SDS011;6651;53.200;10.432;2023-02-13T16:17:54;14.55;;;12.30;;
13171;SDS011;6651;53.200;10.432;2023-02-13T16:20:21;14.45;;;12.05;;
13171;SDS011;6651;53.200;10.432;2023-02-13T16:23:03;14.15;;;12.20;;
13171;SDS011;6651;53.200;10.432;2023-02-13T16:25:32;14.55;;;12.13;;
13171;SDS011;6651;53.200;10.432;2023-02-13T16:28:00;15.13;;;11.90;;
13171;SDS011;6651;53.200;10.432;2023-02-13T16:30:33;14.82;;;12.63;;
13171;SDS011;6651;53.200;10.432;2023-02-13T16:35:36;16.58;;;13.75;;
13171;SDS011;6651;53.200;10.432;2023-02-13T16:38:03;16.35;;;13.55;;
13171;SDS011;6651;53.200;10.432;2023-02-13T16:40:33;15.93;;;13.48;;
13171;SDS011;6651;53.200;10.432;2023-02-13T16:45:44;16.17;;;14.02;;
13171;SDS011;6651;53.200;10.432;2023-02-13T16:50:46;14.50;;;12.68;;
13171;SDS011;6651;53.200;10.432;2023-02-13T16:53:19;18.55;;;13.30;;
13171;SDS011;6651;53.200;10.432;2023-02-13T16:55:45;14.05;;;12.13;;
13171;SDS011;6651;53.200;10.432;2023-02-13T16:58:11;15.13;;;13.50;;
13171;SDS011;6651;53.200;10.432;2023-02-13T17:00:38;17.50;;;15.52;;
13171;SDS011;6651;53.200;10.432;2023-02-13T17:03:06;19.58;;;15.98;;
13171;SDS011;6651;53.200;10.432;2023-02-13T17:05:33;18.77;;;15.65;;
13171;SDS011;6651;53.200;10.432;2023-02-13T17:07:59;20.50;;;16.92;;
13171;SDS011;6651;53.200;10.432;2023-02-13T17:10:27;20.50;;;17.05;;
13171;SDS011;6651;53.200;10.432;2023-02-13T17:12:55;21.00;;;16.90;;